Seneca, IL (61360)

5:25 PM CDT on July 27, 2017 (GMT -0500)
Seneca Illinois | | Change Station
Active Advisory: Flood Warning

Elev 0 ft 41.31 °N, 88.60 °W | Updated 15 seconds ago

Mostly Cloudy
Mostly Cloudy
82.9 °F
Feels Like 88 °F
N
6.9
Wind Variable Wind from NW
Gusts 15.4 mph

Today
High -- | Low -- °F
--% Chance of Precip.
Yesterday
High -- | Low -- °F
Precip. -- in
Pressure 29.90 in
Visibility 10.0 miles
Clouds Mostly Cloudy 7500 ft
Heat Index 88 °F
Dew Point 72 °F
Humidity 70%
Rainfall 0.00 in
Snow Depth Not available.
5:45 AM 8:16 PM
Waxing Crescent, 24% visible
METAR KC09 272215Z AUTO 05004KT 10SM BKN075 27/18 A2990 RMK AO2 T02700184
Pressure 29.90 in
Visibility 10.0 miles
Clouds Mostly Cloudy 7500 ft
Heat Index 88 °F
Dew Point 72 °F
Humidity 70%
Rainfall 0.00 in
Snow Depth Not available.
5:45 AM 8:16 PM
Waxing Crescent, 24% visible
METAR KC09 272215Z AUTO 05004KT 10SM BKN075 27/18 A2990 RMK AO2 T02700184

Get Your Daily Forecast Email!

Thanks for signing up!

Be on the lookout for a verification email in your inbox.

You'll start receiving severe weather alerts in your inbox..

×

10-Day Weather Forecast

Almanac

Astronomy

Jul. 27, 2017 Rise Set
Actual Time
Civil Twilight
Nautical Twilight
Astronomical Twilight
Moon
Length of Visible Light
Length of Day
Tomorrow will be .
, % of the Moon is Illuminated

Today's Extremes

State Highs State Lows

Community

WunderPhotos

Category 6

Welcome to Category 6. This is the collective home for Weather Underground's featured writeups by Dr. Jeff Masters (right), Bob Henson (left), Chris Burt, and other regular contributors.

Nearby

Air Quality

  Air Quality AQ Index Pollutant
Not available.

Snow Depth

Station Depth Elevation

Earthquake Activity

City Distance Mag. Time & Date
Minimum magnitude displayed is 2.5.

Coastal Water Temperatures

Place Temperature

Stations

Nearby Weather Stations

Station Location Temp. Windchill Dew Point Humidity Wind Precip. Elev Updated Type
                   

Watches & Warnings

Flood Warning
Issued: 11:10 AM CDT Jul. 27, 2017 – National Weather Service

The Flood Warning continues for
the Illinois River at La Salle.
* Until this evening.
* At 1045 am Thursday the stage was 20.2 feet.
* Flood stage is 20.0 feet.
* Minor flooding is occurring and minor flooding is forecast.
* Forecast... the river will continue to fall to below flood stage by
late this afternoon.
* Impact... at 20.0 feet... agricultural areas in La Salle, Spring
Valley, and Peru lowlands are flooded.


Lat... Lon 4128 8896 4126 8930 4135 8929 4137 8896



Rc